Skip Navigation Links
NOAA logo - Click to go to the NOAA homepage
NOAA's National Weather Service
Alaska Aviation Weather Unit
  NWS logo - Click to go to the NWS homepage
Left Navbar Graphic     12 AKDT = 20 GMT

   
NOAA is celebrating 200 years of science, service, and stewardship. Visit the NOAA 200th celebration Web site to learn more.
USA.gov is the U.S. Government's official Web portal to all Federal, state and local government Web resources and services.
Facebook
NWS on Facebook

Important Change Regarding the AAWU Web Presence

 

Over the last several months, the AAWU has been working to navigate its webpages to a nationally supported server. Security, as well as other needs, have necessitated the change.  We have been given an extension for the site changeover while we diligently work at addressing feedback received. As of July 14, 2017, aawu.arh.noaa.gov will be discontinued. The new AAWU web address is weather.gov/aawu. It is now live and will run in-parallel with the old site until it is discontinued on July 14, 2017. Please continue to send any feedback or questions regarding the new webpages to nws.ar.aawu.webauthors@noaa.gov.  Thank you for your patience during this time of transition.
AAWU Home :: Display TAF Add Bookmark
SPECI PAMB 251421Z AUTO 19005KT 4SM -RA BR BKN006 BKN026 OVC046 11/11
     A2998 RMK AO2 CIG 003V010 P0002 $=

SPECI PAMB 251441Z AUTO 18006KT 10SM -RA BKN004 BKN008 OVC024 11/11
     A2998 RMK AO2 P0003 $=

SPECI PAMB 251452Z AUTO 19007KT 10SM -RA SCT004 BKN008 OVC022 11/11
     A2998 RMK AO2 CIG 007V011 P0004 $=

METAR PAMB 251456Z AUTO 19006KT 10SM -RA SCT004 OVC022 11/11 A2998 RMK
     AO2 SLP160 P0004 60012 T01060106 56005 $=

SPECI PAMB 251507Z AUTO 19006KT 10SM -RA BKN004 BKN012 OVC022 A2998 RMK
     AO2 P0000 FZRANO $=

METAR PAMB 251556Z AUTO 20006KT 10SM -RA OVC004 11/11 A2997 RMK AO2
     UPB12E19 SLP157 P0001 T01060106 $=

METAR PAMB 251656Z AUTO 22008KT 10SM -RA BKN004 OVC017 11/11 A2997 RMK
     AO2 CIG 004V009 SLP156 P0001 T01110106 $=

SPECI PAMB 251705Z AUTO 23006KT 9SM -RA SCT006 BKN014 OVC019 11/11 A2997
     RMK AO2 P0000 $=

SPECI PAMB 251730Z AUTO 23007KT 8SM BKN006 BKN012 OVC017 11/11 A2997 RMK
     AO2 RAE06 CIG 004V009 P0000 $=

METAR PAMB 251756Z AUTO 23008G19KT 5SM -RA BR BKN008 OVC014 11/11 A2996
     RMK AO2 RAE06B47 CIG 004V011 SLP153 P0000 60014 T01110106
     56006 $=

METAR PAMB 251856Z AUTO 22008KT 6SM BR OVC008 11/11 A2996 RMK AO2
 RAE08 CIG 006V013 SLP153 P0001 T01110106 $=

SPECI PAMB 251952Z AUTO 22008KT 10SM SCT007 OVC012 12/11 A2996 RMK AO2
     $=

METAR PAMB 251956Z AUTO 22008KT 10SM SCT007 OVC012 12/11 A2996 RMK AO2
     SLP151 T01170106 $=

PAMB 252023Z AUTO 22008KT 5SM BR BKN008 OVC012 12/11 A2996 RMK AO2
     CIG 005V011 $=

SPECI PAMB 252035Z AUTO 22007KT 9SM BKN010 OVC013 12/11 A2996 RMK AO2
     CIG 005V010 $=


NOAA's National Weather Service
Alaska Aviation Weather Unit
6930 Sand Lake Road
Anchorage, AK 99502-1845
Disclaimer
Credits
Glossary
Privacy Policy
About Us
Career Opportunities
Contact AAWU Internet Services Site last modified: April, 17th 2012